Time;durP1;ratioP1;P1;durP2;ratioP2;P2;SDS_P1;SDS_P2;PMS_P1;PMS_P2;Temp;Humidity;BMP_temperature;BMP_pressure;BME280_temperature;BME280_humidity;BME280_pressure;Samples;Min_cycle;Max_cycle;Signal;HPM_P1;HPM_P2
2022/07/19 18:17:21;;;;;;;;;79.67;68.00;;;;;35.58;35.18;100732.75;5071708;28;45337;-70
2022/07/19 18:19:46;;;;;;;;;82.67;75.67;;;;;35.55;34.95;100737.97;5052842;28;45501;-72
2022/07/19 18:22:13;;;;;;;;;79.67;75.00;;;;;35.19;35.84;100717.34;5045362;28;45272;-73
2022/07/19 18:24:39;;;;;;;;;90.00;81.00;;;;;34.80;36.79;100734.47;5054178;28;45536;-68
2022/07/19 18:27:07;;;;;;;;;92.00;86.00;;;;;34.44;37.88;100751.91;5054226;28;46920;-69
2022/07/19 18:29:32;;;;;;;;;108.25;95.00;;;;;34.26;38.57;100747.13;5055565;28;45492;-68
2022/07/19 18:31:57;;;;;;;;;107.67;96.67;;;;;34.11;38.69;100743.78;5055485;28;45502;-69
2022/07/19 18:34:23;;;;;;;;;104.33;96.67;;;;;33.87;39.21;100737.06;5055544;28;45482;-69
2022/07/19 18:36:51;;;;;;;;;101.67;96.67;;;;;33.77;39.12;100745.06;5054953;28;46066;-67
2022/07/19 18:39:17;;;;;;;;;105.33;94.00;;;;;33.73;39.52;100750.19;5055459;28;45390;-68
2022/07/19 18:41:42;;;;;;;;;79.67;69.67;;;;;33.41;39.78;100765.91;5055104;28;45240;-68
2022/07/19 18:44:07;;;;;;;;;102.33;95.00;;;;;33.05;40.57;100738.63;5055350;28;45276;-65
2022/07/19 18:46:33;;;;;;;;;87.33;74.33;;;;;33.12;40.67;100771.06;5055138;28;45322;-64
2022/07/19 18:48:59;;;;;;;;;96.67;87.33;;;;;32.93;41.21;100792.25;5054833;28;45361;-64
2022/07/19 18:51:24;;;;;;;;;96.33;87.67;;;;;32.87;40.50;100768.13;5046825;28;45274;-65
2022/07/19 18:53:49;;;;;;;;;83.33;73.00;;;;;32.77;41.36;100767.72;5045307;28;45462;-66
2022/07/19 18:56:15;;;;;;;;;92.00;87.00;;;;;32.72;43.87;100761.97;5054824;28;45288;-63
2022/07/19 18:58:41;;;;;;;;;92.00;83.33;;;;;32.64;41.58;100763.00;5055165;28;45289;-62
2022/07/19 19:01:06;;;;;;;;;83.00;78.33;;;;;32.71;41.36;100768.56;5055269;28;45318;-64
2022/07/19 19:03:32;;;;;;;;;96.00;89.00;;;;;32.76;41.39;100775.19;5055018;28;46026;-63
2022/07/19 19:05:57;;;;;;;;;90.67;80.00;;;;;32.67;41.05;100774.50;5054620;28;46121;-63
2022/07/19 20:07:55;;;;;;;;;34.25;28.75;;;;;30.65;39.88;100908.97;5124860;27;45368;-62
2022/07/19 20:10:20;;;;;;;;;27.75;24.00;;;;;30.72;39.66;100930.13;5102950;27;45682;-61
2022/07/19 20:12:46;;;;;;;;;21.25;19.50;;;;;30.66;39.68;100953.06;5115973;27;45400;-62
2022/07/19 20:15:11;;;;;;;;;25.00;25.00;;;;;30.48;39.66;100923.03;5111309;27;45361;-60
2022/07/19 20:17:37;;;;;;;;;24.75;23.50;;;;;30.42;40.33;100925.75;5105150;27;46512;-60
2022/07/19 20:20:04;;;;;;;;;25.00;25.00;;;;;30.42;40.39;100929.38;5113487;27;45475;-60
2022/07/19 20:22:30;;;;;;;;;24.25;24.25;;;;;30.24;40.38;100917.84;5102461;27;45519;-61
2022/07/19 20:24:55;;;;;;;;;23.25;20.00;;;;;30.14;40.28;100916.44;5115472;27;45384;-59
2022/07/19 20:27:21;;;;;;;;;26.00;22.75;;;;;30.15;40.57;100924.56;5101551;27;46277;-59
2022/07/19 20:29:47;;;;;;;;;23.50;23.50;;;;;30.18;40.14;100921.41;5107483;27;45384;-59
2022/07/19 20:32:12;;;;;;;;;22.75;22.50;;;;;30.09;40.53;100920.66;5108030;27;45477;-59
2022/07/19 20:34:38;;;;;;;;;32.50;25.50;;;;;30.13;40.89;100918.34;5103011;27;45521;-57
2022/07/19 20:37:03;;;;;;;;;23.00;21.75;;;;;30.14;40.46;100924.75;5111449;27;46813;-58
2022/07/19 20:39:28;;;;;;;;;28.25;23.00;;;;;30.07;40.83;100930.19;5116334;27;45386;-59
2022/07/19 20:41:54;;;;;;;;;23.00;22.00;;;;;29.97;41.02;100941.53;5113316;27;45495;-60
2022/07/19 20:44:19;;;;;;;;;25.00;24.75;;;;;29.91;40.54;100941.44;5104461;27;45511;-57
2022/07/19 20:46:45;;;;;;;;;25.00;25.00;;;;;29.87;41.28;100945.59;5102251;27;46380;-58
2022/07/19 20:49:10;;;;;;;;;27.25;24.00;;;;;29.88;40.85;100953.72;5107264;27;45312;-57
2022/07/19 20:51:35;;;;;;;;;28.75;26.50;;;;;29.90;40.87;100953.53;5109067;27;45149;-58
2022/07/19 20:54:01;;;;;;;;;20.00;20.00;;;;;29.71;41.22;100941.13;5103582;27;45183;-57
2022/07/19 20:56:26;;;;;;;;;23.00;21.00;;;;;29.71;40.97;100957.72;5112520;27;46020;-57
2022/07/19 20:58:52;;;;;;;;;29.50;25.00;;;;;29.54;40.89;100943.22;5101914;27;45312;-59
2022/07/19 21:01:17;;;;;;;;;27.75;26.50;;;;;29.65;40.89;100972.28;5108496;27;45368;-60
2022/07/19 21:03:43;;;;;;;;;18.75;16.75;;;;;29.59;41.38;100973.06;5095229;27;45449;-58
